sensor_id;sensor_type;location;lat;lon;timestamp;temperature;humidity
75010;DHT22;63564;46.840;18.336;2023-09-19T00:02:29;21.94;75.36
75010;DHT22;63564;46.840;18.336;2023-09-19T00:05:34;21.86;75.57
75010;DHT22;63564;46.840;18.336;2023-09-19T00:08:34;21.77;75.86
75010;DHT22;63564;46.840;18.336;2023-09-19T00:11:35;21.66;76.15
75010;DHT22;63564;46.840;18.336;2023-09-19T00:14:35;21.63;76.24
75010;DHT22;63564;46.840;18.336;2023-09-19T00:17:36;21.59;76.34
75010;DHT22;63564;46.840;18.336;2023-09-19T00:20:38;21.45;76.97
75010;DHT22;63564;46.840;18.336;2023-09-19T00:23:38;21.41;77.22
75010;DHT22;63564;46.840;18.336;2023-09-19T00:26:41;21.41;77.15
75010;DHT22;63564;46.840;18.336;2023-09-19T00:29:41;21.35;77.35
75010;DHT22;63564;46.840;18.336;2023-09-19T00:32:42;21.28;77.89
75010;DHT22;63564;46.840;18.336;2023-09-19T00:35:52;21.29;77.56
75010;DHT22;63564;46.840;18.336;2023-09-19T00:38:53;21.04;78.53
75010;DHT22;63564;46.840;18.336;2023-09-19T00:41:53;21.11;78.09
75010;DHT22;63564;46.840;18.336;2023-09-19T00:44:54;21.07;77.95
75010;DHT22;63564;46.840;18.336;2023-09-19T00:47:55;21.02;78.57
75010;DHT22;63564;46.840;18.336;2023-09-19T00:50:59;21.01;78.94
75010;DHT22;63564;46.840;18.336;2023-09-19T00:54:02;21.02;78.72
75010;DHT22;63564;46.840;18.336;2023-09-19T00:57:04;21.01;78.23
75010;DHT22;63564;46.840;18.336;2023-09-19T01:00:07;21.07;77.85
75010;DHT22;63564;46.840;18.336;2023-09-19T01:03:09;21.12;77.49
75010;DHT22;63564;46.840;18.336;2023-09-19T01:06:09;21.12;77.86
75010;DHT22;63564;46.840;18.336;2023-09-19T01:09:10;21.12;77.46
75010;DHT22;63564;46.840;18.336;2023-09-19T01:12:12;21.02;77.55
75010;DHT22;63564;46.840;18.336;2023-09-19T01:22:00;21.15;76.19
75010;DHT22;63564;46.840;18.336;2023-09-19T01:28:34;21.15;76.43
75010;DHT22;63564;46.840;18.336;2023-09-19T01:31:42;21.12;76.09
75010;DHT22;63564;46.840;18.336;2023-09-19T01:34:47;21.16;76.04
75010;DHT22;63564;46.840;18.336;2023-09-19T01:37:48;21.21;75.54
75010;DHT22;63564;46.840;18.336;2023-09-19T01:40:57;21.24;75.38
75010;DHT22;63564;46.840;18.336;2023-09-19T01:44:06;21.26;75.54
75010;DHT22;63564;46.840;18.336;2023-09-19T01:47:37;21.21;76.02
75010;DHT22;63564;46.840;18.336;2023-09-19T01:50:44;21.19;75.98
75010;DHT22;63564;46.840;18.336;2023-09-19T01:54:18;20.84;77.54
75010;DHT22;63564;46.840;18.336;2023-09-19T01:57:27;20.77;77.57
75010;DHT22;63564;46.840;18.336;2023-09-19T02:00:29;20.85;77.36
75010;DHT22;63564;46.840;18.336;2023-09-19T02:03:34;20.69;78.19
75010;DHT22;63564;46.840;18.336;2023-09-19T02:06:42;20.57;78.02
75010;DHT22;63564;46.840;18.336;2023-09-19T02:09:43;20.50;78.31
75010;DHT22;63564;46.840;18.336;2023-09-19T02:12:43;20.43;78.25
75010;DHT22;63564;46.840;18.336;2023-09-19T02:15:43;20.32;78.79
75010;DHT22;63564;46.840;18.336;2023-09-19T02:18:50;20.36;78.66
75010;DHT22;63564;46.840;18.336;2023-09-19T02:21:51;20.36;78.35
75010;DHT22;63564;46.840;18.336;2023-09-19T02:24:52;20.33;78.51
75010;DHT22;63564;46.840;18.336;2023-09-19T02:27:54;20.30;78.75
75010;DHT22;63564;46.840;18.336;2023-09-19T02:30:54;20.32;78.39
75010;DHT22;63564;46.840;18.336;2023-09-19T02:33:55;20.36;78.40
75010;DHT22;63564;46.840;18.336;2023-09-19T02:36:56;20.36;78.10
75010;DHT22;63564;46.840;18.336;2023-09-19T02:39:57;20.32;78.12
75010;DHT22;63564;46.840;18.336;2023-09-19T02:42:57;20.30;78.22
75010;DHT22;63564;46.840;18.336;2023-09-19T02:45:59;20.25;78.08
75010;DHT22;63564;46.840;18.336;2023-09-19T02:48:59;20.16;78.92
75010;DHT22;63564;46.840;18.336;2023-09-19T02:52:00;20.04;79.00
75010;DHT22;63564;46.840;18.336;2023-09-19T02:55:01;19.96;79.43
75010;DHT22;63564;46.840;18.336;2023-09-19T02:58:01;20.04;78.94
75010;DHT22;63564;46.840;18.336;2023-09-19T03:01:11;20.01;78.72
75010;DHT22;63564;46.840;18.336;2023-09-19T03:04:19;20.08;78.85
75010;DHT22;63564;46.840;18.336;2023-09-19T03:07:20;19.99;79.40
75010;DHT22;63564;46.840;18.336;2023-09-19T03:10:21;19.91;80.10
75010;DHT22;63564;46.840;18.336;2023-09-19T03:13:22;19.96;79.74
75010;DHT22;63564;46.840;18.336;2023-09-19T03:16:22;19.82;80.25
75010;DHT22;63564;46.840;18.336;2023-09-19T03:19:22;19.78;80.47
75010;DHT22;63564;46.840;18.336;2023-09-19T03:22:23;19.67;80.72
75010;DHT22;63564;46.840;18.336;2023-09-19T03:25:25;19.61;80.87
75010;DHT22;63564;46.840;18.336;2023-09-19T03:28:25;19.60;80.67
75010;DHT22;63564;46.840;18.336;2023-09-19T03:31:26;19.53;80.90
75010;DHT22;63564;46.840;18.336;2023-09-19T03:34:26;19.54;80.98
75010;DHT22;63564;46.840;18.336;2023-09-19T03:37:26;19.50;80.99
75010;DHT22;63564;46.840;18.336;2023-09-19T03:40:27;19.54;80.79
75010;DHT22;63564;46.840;18.336;2023-09-19T03:43:27;19.58;81.32
75010;DHT22;63564;46.840;18.336;2023-09-19T03:46:28;19.70;81.36
75010;DHT22;63564;46.840;18.336;2023-09-19T03:49:28;19.75;80.65
75010;DHT22;63564;46.840;18.336;2023-09-19T03:52:30;19.81;80.77
75010;DHT22;63564;46.840;18.336;2023-09-19T03:55:31;19.77;80.88
75010;DHT22;63564;46.840;18.336;2023-09-19T03:58:31;19.74;81.50
75010;DHT22;63564;46.840;18.336;2023-09-19T04:01:31;19.63;81.70
75010;DHT22;63564;46.840;18.336;2023-09-19T04:04:32;19.57;82.69
75010;DHT22;63564;46.840;18.336;2023-09-19T04:07:33;19.68;81.34
75010;DHT22;63564;46.840;18.336;2023-09-19T04:10:34;19.78;80.67
75010;DHT22;63564;46.840;18.336;2023-09-19T04:13:36;20.01;79.96
75010;DHT22;63564;46.840;18.336;2023-09-19T04:16:36;20.04;80.42
75010;DHT22;63564;46.840;18.336;2023-09-19T04:19:37;20.04;79.79
75010;DHT22;63564;46.840;18.336;2023-09-19T04:22:38;19.94;80.61
75010;DHT22;63564;46.840;18.336;2023-09-19T04:25:40;20.08;80.30
75010;DHT22;63564;46.840;18.336;2023-09-19T04:28:41;20.25;79.95
75010;DHT22;63564;46.840;18.336;2023-09-19T04:31:41;20.28;79.28
75010;DHT22;63564;46.840;18.336;2023-09-19T04:34:44;20.23;79.10
75010;DHT22;63564;46.840;18.336;2023-09-19T04:37:44;20.11;78.75
75010;DHT22;63564;46.840;18.336;2023-09-19T04:40:45;20.11;77.89
75010;DHT22;63564;46.840;18.336;2023-09-19T04:43:46;20.13;76.81
75010;DHT22;63564;46.840;18.336;2023-09-19T04:46:47;20.04;78.59
75010;DHT22;63564;46.840;18.336;2023-09-19T04:49:47;20.22;76.84
75010;DHT22;63564;46.840;18.336;2023-09-19T04:52:51;19.89;78.28
75010;DHT22;63564;46.840;18.336;2023-09-19T04:55:51;19.86;78.23
75010;DHT22;63564;46.840;18.336;2023-09-19T04:58:55;19.71;78.48
75010;DHT22;63564;46.840;18.336;2023-09-19T05:01:56;19.82;77.31
75010;DHT22;63564;46.840;18.336;2023-09-19T05:04:56;19.95;77.11
75010;DHT22;63564;46.840;18.336;2023-09-19T05:07:59;19.56;78.41
75010;DHT22;63564;46.840;18.336;2023-09-19T05:11:01;19.41;78.90
75010;DHT22;63564;46.840;18.336;2023-09-19T05:14:02;19.40;78.69
75010;DHT22;63564;46.840;18.336;2023-09-19T05:17:04;19.23;80.10
75010;DHT22;63564;46.840;18.336;2023-09-19T05:20:04;19.34;79.75
75010;DHT22;63564;46.840;18.336;2023-09-19T05:23:16;19.31;80.31
75010;DHT22;63564;46.840;18.336;2023-09-19T05:26:17;19.41;79.48
75010;DHT22;63564;46.840;18.336;2023-09-19T05:29:18;19.22;80.27
75010;DHT22;63564;46.840;18.336;2023-09-19T05:32:18;19.50;79.05
75010;DHT22;63564;46.840;18.336;2023-09-19T05:35:20;19.53;78.49
75010;DHT22;63564;46.840;18.336;2023-09-19T05:38:21;19.56;78.56
75010;DHT22;63564;46.840;18.336;2023-09-19T05:41:23;19.51;78.37
75010;DHT22;63564;46.840;18.336;2023-09-19T05:44:23;19.46;78.99
75010;DHT22;63564;46.840;18.336;2023-09-19T05:47:24;19.20;80.16
75010;DHT22;63564;46.840;18.336;2023-09-19T05:50:25;19.18;81.46
75010;DHT22;63564;46.840;18.336;2023-09-19T05:53:25;19.06;82.47
75010;DHT22;63564;46.840;18.336;2023-09-19T05:56:26;18.88;83.14
75010;DHT22;63564;46.840;18.336;2023-09-19T05:59:27;18.67;85.10
75010;DHT22;63564;46.840;18.336;2023-09-19T06:02:28;18.40;87.28
75010;DHT22;63564;46.840;18.336;2023-09-19T06:05:30;18.27;88.62
75010;DHT22;63564;46.840;18.336;2023-09-19T06:08:33;18.09;89.82
75010;DHT22;63564;46.840;18.336;2023-09-19T06:11:36;17.96;89.58
75010;DHT22;63564;46.840;18.336;2023-09-19T06:14:37;17.97;89.13
75010;DHT22;63564;46.840;18.336;2023-09-19T06:17:37;17.99;90.61
75010;DHT22;63564;46.840;18.336;2023-09-19T06:20:38;17.96;90.74
75010;DHT22;63564;46.840;18.336;2023-09-19T06:23:44;18.09;88.49
75010;DHT22;63564;46.840;18.336;2023-09-19T06:26:45;17.89;89.48
75010;DHT22;63564;46.840;18.336;2023-09-19T06:29:45;17.92;89.63
75010;DHT22;63564;46.840;18.336;2023-09-19T06:32:46;17.69;91.23
75010;DHT22;63564;46.840;18.336;2023-09-19T06:35:46;17.62;92.32
75010;DHT22;63564;46.840;18.336;2023-09-19T06:38:47;17.71;91.86
75010;DHT22;63564;46.840;18.336;2023-09-19T06:41:52;17.54;92.90
75010;DHT22;63564;46.840;18.336;2023-09-19T06:44:53;17.52;91.93
75010;DHT22;63564;46.840;18.336;2023-09-19T06:47:54;17.51;92.37
75010;DHT22;63564;46.840;18.336;2023-09-19T06:50:57;17.45;92.72
75010;DHT22;63564;46.840;18.336;2023-09-19T06:54:05;17.42;94.16
75010;DHT22;63564;46.840;18.336;2023-09-19T06:57:06;17.48;94.26
75010;DHT22;63564;46.840;18.336;2023-09-19T07:00:11;17.52;94.39
75010;DHT22;63564;46.840;18.336;2023-09-19T07:03:38;17.41;93.80
75010;DHT22;63564;46.840;18.336;2023-09-19T07:06:40;17.48;93.79
75010;DHT22;63564;46.840;18.336;2023-09-19T07:09:40;17.38;93.88
75010;DHT22;63564;46.840;18.336;2023-09-19T07:12:42;17.44;94.73
75010;DHT22;63564;46.840;18.336;2023-09-19T07:15:43;17.52;93.96
75010;DHT22;63564;46.840;18.336;2023-09-19T07:18:47;17.41;94.98
75010;DHT22;63564;46.840;18.336;2023-09-19T07:21:49;17.34;94.09
75010;DHT22;63564;46.840;18.336;2023-09-19T07:24:50;17.34;94.03
75010;DHT22;63564;46.840;18.336;2023-09-19T07:27:52;17.44;95.29
75010;DHT22;63564;46.840;18.336;2023-09-19T07:30:54;17.47;94.29
75010;DHT22;63564;46.840;18.336;2023-09-19T07:33:55;17.55;95.00
75010;DHT22;63564;46.840;18.336;2023-09-19T07:36:55;17.62;94.31
75010;DHT22;63564;46.840;18.336;2023-09-19T07:39:56;17.64;94.81
75010;DHT22;63564;46.840;18.336;2023-09-19T07:42:57;17.55;95.57
75010;DHT22;63564;46.840;18.336;2023-09-19T07:46:07;17.59;95.35
75010;DHT22;63564;46.840;18.336;2023-09-19T07:49:11;17.69;95.54
75010;DHT22;63564;46.840;18.336;2023-09-19T07:52:12;17.69;94.68
75010;DHT22;63564;46.840;18.336;2023-09-19T07:55:12;17.88;94.79
75010;DHT22;63564;46.840;18.336;2023-09-19T07:58:16;18.02;94.52
75010;DHT22;63564;46.840;18.336;2023-09-19T08:01:16;18.36;94.14
75010;DHT22;63564;46.840;18.336;2023-09-19T08:04:19;18.16;94.21
75010;DHT22;63564;46.840;18.336;2023-09-19T08:07:20;18.06;94.35
75010;DHT22;63564;46.840;18.336;2023-09-19T08:10:20;18.18;95.44
75010;DHT22;63564;46.840;18.336;2023-09-19T08:13:22;18.23;93.24
75010;DHT22;63564;46.840;18.336;2023-09-19T08:16:22;18.41;93.68
75010;DHT22;63564;46.840;18.336;2023-09-19T08:19:25;18.47;93.36
75010;DHT22;63564;46.840;18.336;2023-09-19T08:22:28;18.72;93.83
75010;DHT22;63564;46.840;18.336;2023-09-19T08:25:28;18.96;92.49
75010;DHT22;63564;46.840;18.336;2023-09-19T08:28:29;19.13;91.68
75010;DHT22;63564;46.840;18.336;2023-09-19T08:31:29;19.23;91.38
75010;DHT22;63564;46.840;18.336;2023-09-19T08:34:30;19.12;90.55
75010;DHT22;63564;46.840;18.336;2023-09-19T08:37:33;19.05;90.73
75010;DHT22;63564;46.840;18.336;2023-09-19T08:40:37;19.10;91.42
75010;DHT22;63564;46.840;18.336;2023-09-19T08:43:39;19.06;90.49
75010;DHT22;63564;46.840;18.336;2023-09-19T08:46:41;18.99;90.29
75010;DHT22;63564;46.840;18.336;2023-09-19T08:50:06;18.79;91.08
75010;DHT22;63564;46.840;18.336;2023-09-19T08:53:19;18.64;91.12
75010;DHT22;63564;46.840;18.336;2023-09-19T08:56:22;18.71;91.10
75010;DHT22;63564;46.840;18.336;2023-09-19T08:59:24;19.22;91.23
75010;DHT22;63564;46.840;18.336;2023-09-19T09:02:26;18.91;91.30
75010;DHT22;63564;46.840;18.336;2023-09-19T09:05:28;19.00;90.58
75010;DHT22;63564;46.840;18.336;2023-09-19T09:08:30;18.95;88.15
75010;DHT22;63564;46.840;18.336;2023-09-19T09:11:33;19.20;90.61
75010;DHT22;63564;46.840;18.336;2023-09-19T09:14:33;19.51;91.15
75010;DHT22;63564;46.840;18.336;2023-09-19T09:17:34;19.47;89.12
75010;DHT22;63564;46.840;18.336;2023-09-19T09:20:34;19.61;89.32
75010;DHT22;63564;46.840;18.336;2023-09-19T09:23:36;19.67;87.62
75010;DHT22;63564;46.840;18.336;2023-09-19T09:29:41;19.51;88.56
75010;DHT22;63564;46.840;18.336;2023-09-19T09:32:41;19.47;88.66
75010;DHT22;63564;46.840;18.336;2023-09-19T09:35:52;19.54;87.21
75010;DHT22;63564;46.840;18.336;2023-09-19T09:38:53;19.53;86.14
75010;DHT22;63564;46.840;18.336;2023-09-19T09:41:55;19.70;87.28
75010;DHT22;63564;46.840;18.336;2023-09-19T09:48:24;19.94;85.78
75010;DHT22;63564;46.840;18.336;2023-09-19T09:51:31;20.26;85.28
75010;DHT22;63564;46.840;18.336;2023-09-19T09:54:34;20.78;82.71
75010;DHT22;63564;46.840;18.336;2023-09-19T09:57:38;20.67;82.16
75010;DHT22;63564;46.840;18.336;2023-09-19T10:00:52;20.56;83.19
75010;DHT22;63564;46.840;18.336;2023-09-19T10:03:58;20.83;82.32
75010;DHT22;63564;46.840;18.336;2023-09-19T10:06:59;20.99;79.28
75010;DHT22;63564;46.840;18.336;2023-09-19T10:10:05;21.38;80.40
75010;DHT22;63564;46.840;18.336;2023-09-19T10:13:36;21.66;82.53
75010;DHT22;63564;46.840;18.336;2023-09-19T10:16:45;21.59;77.28
75010;DHT22;63564;46.840;18.336;2023-09-19T10:19:54;21.42;76.95
75010;DHT22;63564;46.840;18.336;2023-09-19T10:22:59;21.60;76.55
75010;DHT22;63564;46.840;18.336;2023-09-19T10:26:01;21.59;75.05
75010;DHT22;63564;46.840;18.336;2023-09-19T10:29:06;21.50;76.44
75010;DHT22;63564;46.840;18.336;2023-09-19T10:32:08;22.04;75.68
75010;DHT22;63564;46.840;18.336;2023-09-19T10:35:11;22.83;72.17
75010;DHT22;63564;46.840;18.336;2023-09-19T10:38:15;22.99;70.57
75010;DHT22;63564;46.840;18.336;2023-09-19T10:41:19;23.08;70.50
75010;DHT22;63564;46.840;18.336;2023-09-19T10:44:24;23.25;70.83
75010;DHT22;63564;46.840;18.336;2023-09-19T10:47:28;23.68;68.58
75010;DHT22;63564;46.840;18.336;2023-09-19T10:53:50;23.34;71.92
75010;DHT22;63564;46.840;18.336;2023-09-19T10:56:51;23.40;67.92
75010;DHT22;63564;46.840;18.336;2023-09-19T11:03:24;23.44;69.57
75010;DHT22;63564;46.840;18.336;2023-09-19T11:06:30;23.23;69.80
75010;DHT22;63564;46.840;18.336;2023-09-19T11:12:55;23.35;70.86
75010;DHT22;63564;46.840;18.336;2023-09-19T11:18:59;23.35;69.32
75010;DHT22;63564;46.840;18.336;2023-09-19T11:22:01;23.97;68.38
75010;DHT22;63564;46.840;18.336;2023-09-19T11:28:31;23.20;69.66
75010;DHT22;63564;46.840;18.336;2023-09-19T11:31:42;23.75;68.29
75010;DHT22;63564;46.840;18.336;2023-09-19T11:34:45;23.57;69.01
75010;DHT22;63564;46.840;18.336;2023-09-19T11:47:32;24.05;69.93
75010;DHT22;63564;46.840;18.336;2023-09-19T11:50:32;24.13;66.78
75010;DHT22;63564;46.840;18.336;2023-09-19T11:53:35;24.12;66.59
75010;DHT22;63564;46.840;18.336;2023-09-19T11:56:38;23.93;67.18
75010;DHT22;63564;46.840;18.336;2023-09-19T11:59:41;24.16;66.66
75010;DHT22;63564;46.840;18.336;2023-09-19T12:02:47;24.20;66.75
75010;DHT22;63564;46.840;18.336;2023-09-19T12:05:49;24.51;65.56
75010;DHT22;63564;46.840;18.336;2023-09-19T12:08:49;24.09;67.35
75010;DHT22;63564;46.840;18.336;2023-09-19T12:11:51;24.61;65.43
75010;DHT22;63564;46.840;18.336;2023-09-19T12:14:52;25.02;63.83
75010;DHT22;63564;46.840;18.336;2023-09-19T12:17:53;24.53;67.38
75010;DHT22;63564;46.840;18.336;2023-09-19T12:20:54;24.60;62.87
75010;DHT22;63564;46.840;18.336;2023-09-19T12:24:06;24.41;62.33
75010;DHT22;63564;46.840;18.336;2023-09-19T12:27:07;24.64;63.45
75010;DHT22;63564;46.840;18.336;2023-09-19T12:30:08;24.71;61.87
75010;DHT22;63564;46.840;18.336;2023-09-19T12:33:19;25.18;62.28
75010;DHT22;63564;46.840;18.336;2023-09-19T12:36:25;25.58;59.23
75010;DHT22;63564;46.840;18.336;2023-09-19T12:39:29;24.92;61.21
75010;DHT22;63564;46.840;18.336;2023-09-19T12:42:30;25.22;59.94
75010;DHT22;63564;46.840;18.336;2023-09-19T12:45:34;24.82;61.59
75010;DHT22;63564;46.840;18.336;2023-09-19T12:48:37;25.20;60.85
75010;DHT22;63564;46.840;18.336;2023-09-19T12:51:45;25.03;61.39
75010;DHT22;63564;46.840;18.336;2023-09-19T12:54:46;24.95;61.97
75010;DHT22;63564;46.840;18.336;2023-09-19T13:01:14;25.18;60.14
75010;DHT22;63564;46.840;18.336;2023-09-19T13:04:20;25.82;58.07
75010;DHT22;63564;46.840;18.336;2023-09-19T13:07:43;25.70;58.49
75010;DHT22;63564;46.840;18.336;2023-09-19T13:11:19;26.04;58.41
75010;DHT22;63564;46.840;18.336;2023-09-19T13:14:28;25.98;59.08
75010;DHT22;63564;46.840;18.336;2023-09-19T13:17:45;26.11;58.54
75010;DHT22;63564;46.840;18.336;2023-09-19T13:21:08;26.08;59.25
75010;DHT22;63564;46.840;18.336;2023-09-19T13:24:23;26.44;56.73
75010;DHT22;63564;46.840;18.336;2023-09-19T13:27:26;26.31;58.65
75010;DHT22;63564;46.840;18.336;2023-09-19T13:30:28;26.04;58.83
75010;DHT22;63564;46.840;18.336;2023-09-19T13:33:33;25.78;57.44
75010;DHT22;63564;46.840;18.336;2023-09-19T13:36:33;25.77;58.30
75010;DHT22;63564;46.840;18.336;2023-09-19T13:39:34;25.43;60.00
75010;DHT22;63564;46.840;18.336;2023-09-19T13:42:35;25.71;58.82
75010;DHT22;63564;46.840;18.336;2023-09-19T13:45:36;26.31;56.48
75010;DHT22;63564;46.840;18.336;2023-09-19T13:48:37;26.15;56.56
75010;DHT22;63564;46.840;18.336;2023-09-19T13:51:38;25.44;60.54
75010;DHT22;63564;46.840;18.336;2023-09-19T13:54:39;26.54;57.56
75010;DHT22;63564;46.840;18.336;2023-09-19T13:57:39;27.94;52.77
75010;DHT22;63564;46.840;18.336;2023-09-19T14:02:57;28.79;50.06
75010;DHT22;63564;46.840;18.336;2023-09-19T14:05:58;28.18;51.54
75010;DHT22;63564;46.840;18.336;2023-09-19T14:08:58;28.53;51.01
75010;DHT22;63564;46.840;18.336;2023-09-19T14:11:59;28.67;51.31
75010;DHT22;63564;46.840;18.336;2023-09-19T14:14:59;29.55;47.60
75010;DHT22;63564;46.840;18.336;2023-09-19T14:17:59;28.63;49.31
75010;DHT22;63564;46.840;18.336;2023-09-19T14:21:04;27.02;53.52
75010;DHT22;63564;46.840;18.336;2023-09-19T14:24:05;25.85;55.39
75010;DHT22;63564;46.840;18.336;2023-09-19T14:27:09;25.71;57.23
75010;DHT22;63564;46.840;18.336;2023-09-19T14:30:10;25.92;56.58
75010;DHT22;63564;46.840;18.336;2023-09-19T14:33:11;26.23;56.48
75010;DHT22;63564;46.840;18.336;2023-09-19T14:36:11;26.47;54.58
75010;DHT22;63564;46.840;18.336;2023-09-19T14:39:13;25.54;56.61
75010;DHT22;63564;46.840;18.336;2023-09-19T14:42:14;24.89;59.59
75010;DHT22;63564;46.840;18.336;2023-09-19T14:45:17;24.85;58.37
75010;DHT22;63564;46.840;18.336;2023-09-19T14:48:18;24.65;59.27
75010;DHT22;63564;46.840;18.336;2023-09-19T14:51:19;24.71;58.81
75010;DHT22;63564;46.840;18.336;2023-09-19T14:54:19;25.10;56.59
75010;DHT22;63564;46.840;18.336;2023-09-19T14:57:20;24.83;58.67
75010;DHT22;63564;46.840;18.336;2023-09-19T15:00:20;24.99;58.95
75010;DHT22;63564;46.840;18.336;2023-09-19T15:03:23;24.85;58.15
75010;DHT22;63564;46.840;18.336;2023-09-19T15:06:24;24.93;57.93
75010;DHT22;63564;46.840;18.336;2023-09-19T15:09:26;24.45;62.03
75010;DHT22;63564;46.840;18.336;2023-09-19T15:12:27;24.16;60.65
75010;DHT22;63564;46.840;18.336;2023-09-19T15:15:31;24.06;60.49
75010;DHT22;63564;46.840;18.336;2023-09-19T15:18:32;24.06;60.68
75010;DHT22;63564;46.840;18.336;2023-09-19T15:21:34;24.02;61.46
75010;DHT22;63564;46.840;18.336;2023-09-19T15:24:35;23.97;63.52
75010;DHT22;63564;46.840;18.336;2023-09-19T15:27:35;24.26;61.23
75010;DHT22;63564;46.840;18.336;2023-09-19T15:30:37;24.37;59.89
75010;DHT22;63564;46.840;18.336;2023-09-19T15:33:39;24.50;59.52
75010;DHT22;63564;46.840;18.336;2023-09-19T15:36:40;24.28;59.59
75010;DHT22;63564;46.840;18.336;2023-09-19T15:39:42;24.30;59.66
75010;DHT22;63564;46.840;18.336;2023-09-19T15:42:44;24.06;60.44
75010;DHT22;63564;46.840;18.336;2023-09-19T15:45:45;24.03;60.60
75010;DHT22;63564;46.840;18.336;2023-09-19T15:48:46;23.99;60.17
75010;DHT22;63564;46.840;18.336;2023-09-19T15:51:46;23.70;62.37
75010;DHT22;63564;46.840;18.336;2023-09-19T15:54:47;23.57;63.03
75010;DHT22;63564;46.840;18.336;2023-09-19T15:57:48;23.47;62.92
75010;DHT22;63564;46.840;18.336;2023-09-19T16:00:49;23.45;62.94
75010;DHT22;63564;46.840;18.336;2023-09-19T16:03:52;23.52;62.90
75010;DHT22;63564;46.840;18.336;2023-09-19T16:06:54;23.20;64.15
75010;DHT22;63564;46.840;18.336;2023-09-19T16:09:55;23.03;65.86
75010;DHT22;63564;46.840;18.336;2023-09-19T16:12:55;22.77;66.87
75010;DHT22;63564;46.840;18.336;2023-09-19T16:15:56;22.79;65.98
75010;DHT22;63564;46.840;18.336;2023-09-19T16:18:59;22.70;66.13
75010;DHT22;63564;46.840;18.336;2023-09-19T16:22:04;22.65;66.27
75010;DHT22;63564;46.840;18.336;2023-09-19T16:25:05;22.56;66.88
75010;DHT22;63564;46.840;18.336;2023-09-19T16:28:06;22.38;67.97
75010;DHT22;63564;46.840;18.336;2023-09-19T16:31:08;22.27;67.70
75010;DHT22;63564;46.840;18.336;2023-09-19T16:34:09;22.20;67.86
75010;DHT22;63564;46.840;18.336;2023-09-19T16:37:10;22.10;68.16
75010;DHT22;63564;46.840;18.336;2023-09-19T16:40:11;21.98;68.76
75010;DHT22;63564;46.840;18.336;2023-09-19T16:43:12;21.84;69.88
75010;DHT22;63564;46.840;18.336;2023-09-19T16:46:14;21.63;70.97
75010;DHT22;63564;46.840;18.336;2023-09-19T16:49:16;21.54;71.31
75010;DHT22;63564;46.840;18.336;2023-09-19T16:52:17;21.31;72.05
75010;DHT22;63564;46.840;18.336;2023-09-19T16:55:18;21.24;71.54
75010;DHT22;63564;46.840;18.336;2023-09-19T16:58:21;21.01;73.01
75010;DHT22;63564;46.840;18.336;2023-09-19T17:01:22;20.40;76.28
75010;DHT22;63564;46.840;18.336;2023-09-19T17:04:24;20.51;75.06
75010;DHT22;63564;46.840;18.336;2023-09-19T17:07:26;20.40;75.19
75010;DHT22;63564;46.840;18.336;2023-09-19T17:10:31;20.22;75.78
75010;DHT22;63564;46.840;18.336;2023-09-19T17:13:35;20.25;75.71
75010;DHT22;63564;46.840;18.336;2023-09-19T17:16:36;20.22;75.52
75010;DHT22;63564;46.840;18.336;2023-09-19T17:19:37;20.04;76.32
75010;DHT22;63564;46.840;18.336;2023-09-19T17:22:38;19.91;76.68
75010;DHT22;63564;46.840;18.336;2023-09-19T17:25:40;19.95;76.37
75010;DHT22;63564;46.840;18.336;2023-09-19T17:28:41;19.78;77.45
75010;DHT22;63564;46.840;18.336;2023-09-19T17:31:43;19.61;78.45
75010;DHT22;63564;46.840;18.336;2023-09-19T17:34:47;19.63;79.41
75010;DHT22;63564;46.840;18.336;2023-09-19T17:37:50;19.60;79.68
75010;DHT22;63564;46.840;18.336;2023-09-19T17:40:50;19.57;79.55
75010;DHT22;63564;46.840;18.336;2023-09-19T17:43:55;19.54;79.47
75010;DHT22;63564;46.840;18.336;2023-09-19T17:46:56;19.51;79.65
75010;DHT22;63564;46.840;18.336;2023-09-19T17:49:59;19.58;79.66
75010;DHT22;63564;46.840;18.336;2023-09-19T17:53:01;19.58;79.57
75010;DHT22;63564;46.840;18.336;2023-09-19T17:56:06;19.41;80.34
75010;DHT22;63564;46.840;18.336;2023-09-19T17:59:11;19.31;81.08
75010;DHT22;63564;46.840;18.336;2023-09-19T18:02:14;19.24;81.69
75010;DHT22;63564;46.840;18.336;2023-09-19T18:05:15;19.13;82.07
75010;DHT22;63564;46.840;18.336;2023-09-19T18:08:17;19.05;82.62
75010;DHT22;63564;46.840;18.336;2023-09-19T18:11:21;18.94;83.12
75010;DHT22;63564;46.840;18.336;2023-09-19T18:14:27;18.79;84.30
75010;DHT22;63564;46.840;18.336;2023-09-19T18:17:37;18.50;85.35
75010;DHT22;63564;46.840;18.336;2023-09-19T18:20:40;18.50;85.55
75010;DHT22;63564;46.840;18.336;2023-09-19T18:23:42;18.37;86.15
75010;DHT22;63564;46.840;18.336;2023-09-19T18:26:43;18.38;85.95
75010;DHT22;63564;46.840;18.336;2023-09-19T18:29:45;18.36;86.09
75010;DHT22;63564;46.840;18.336;2023-09-19T18:32:47;18.43;85.87
75010;DHT22;63564;46.840;18.336;2023-09-19T18:35:51;18.38;86.21
75010;DHT22;63564;46.840;18.336;2023-09-19T18:38:55;18.58;84.85
75010;DHT22;63564;46.840;18.336;2023-09-19T18:41:56;18.64;85.31
75010;DHT22;63564;46.840;18.336;2023-09-19T18:44:57;18.61;85.17
75010;DHT22;63564;46.840;18.336;2023-09-19T18:47:58;18.58;84.61
75010;DHT22;63564;46.840;18.336;2023-09-19T18:51:04;18.47;85.20
75010;DHT22;63564;46.840;18.336;2023-09-19T18:54:06;18.48;85.27
75010;DHT22;63564;46.840;18.336;2023-09-19T18:57:07;18.32;86.03
75010;DHT22;63564;46.840;18.336;2023-09-19T19:00:08;18.29;86.18
75010;DHT22;63564;46.840;18.336;2023-09-19T19:03:10;18.09;87.44
75010;DHT22;63564;46.840;18.336;2023-09-19T19:06:15;18.03;87.71
75010;DHT22;63564;46.840;18.336;2023-09-19T19:09:16;17.86;88.46
75010;DHT22;63564;46.840;18.336;2023-09-19T19:12:19;17.82;88.67
75010;DHT22;63564;46.840;18.336;2023-09-19T19:15:20;17.85;88.86
75010;DHT22;63564;46.840;18.336;2023-09-19T19:18:22;17.88;87.66
75010;DHT22;63564;46.840;18.336;2023-09-19T19:21:28;17.89;87.27
75010;DHT22;63564;46.840;18.336;2023-09-19T19:24:30;17.97;86.36
75010;DHT22;63564;46.840;18.336;2023-09-19T19:27:31;18.09;86.17
75010;DHT22;63564;46.840;18.336;2023-09-19T19:30:32;18.07;86.06
75010;DHT22;63564;46.840;18.336;2023-09-19T19:33:33;18.02;86.21
75010;DHT22;63564;46.840;18.336;2023-09-19T19:36:35;17.93;86.57
75010;DHT22;63564;46.840;18.336;2023-09-19T19:39:36;17.90;86.34
75010;DHT22;63564;46.840;18.336;2023-09-19T19:42:37;17.78;87.15
75010;DHT22;63564;46.840;18.336;2023-09-19T19:45:38;17.76;87.24